SVA1080 OEJN-OERK
Flight info
| Callsign | SVA1080 |
|---|---|
| Flight time | 1h 27m |
| Altitude | 37000 |
| Route | EGREP T532 DAW DCT KAVUR |
| Aircraft | A21N/M-SDE2E3FGHIRWXY/LB1 |
Departure
| Time | 2026-04-28 13:10 |
|---|---|
| Airport | King Abdulaziz International Airport (OEJN) |
Arrival
| Time | 2026-04-28 14:38 |
|---|---|
| Airport | King Khalid International Airport (OERK) |
| Time | Latitude | Longitude | Altitude | Speed | Heading |
|---|---|---|---|---|---|
| 2026-04-28 12:58 | 21.66245 | 39.17081 | 57 ft | 0 kts | 117° |
| 2026-04-28 13:04 | 21.66252 | 39.17067 | 57 ft | 2 kts | 117° |
| 2026-04-28 13:04 | 21.66259 | 39.17053 | 57 ft | 2 kts | 117° |
| 2026-04-28 13:04 | 21.66266 | 39.17038 | 57 ft | 2 kts | 117° |
| 2026-04-28 13:05 | 21.66273 | 39.17024 | 57 ft | 2 kts | 130° |
| 2026-04-28 13:05 | 21.66286 | 39.17016 | 57 ft | 2 kts | 169° |
| 2026-04-28 13:05 | 21.66300 | 39.17016 | 57 ft | 0 kts | 200° |
| 2026-04-28 13:05 | 21.66305 | 39.17018 | 57 ft | 1 kts | 206° |
| 2026-04-28 13:06 | 21.66307 | 39.17020 | 57 ft | 0 kts | 204° |
| 2026-04-28 13:07 | 21.66298 | 39.17016 | 57 ft | 8 kts | 204° |
| 2026-04-28 13:07 | 21.66258 | 39.16994 | 57 ft | 10 kts | 212° |
| 2026-04-28 13:08 | 21.66175 | 39.16927 | 57 ft | 13 kts | 219° |
| 2026-04-28 13:08 | 21.66117 | 39.16811 | 57 ft | 18 kts | 281° |
| 2026-04-28 13:08 | 21.66204 | 39.16726 | 57 ft | 16 kts | 284° |
| 2026-04-28 13:08 | 21.66174 | 39.16613 | 56 ft | 13 kts | 250° |
| 2026-04-28 13:09 | 21.66141 | 39.16513 | 57 ft | 12 kts | 254° |
| 2026-04-28 13:09 | 21.66169 | 39.16468 | 56 ft | 0 kts | 339° |
| 2026-04-28 13:09 | 21.66262 | 39.16432 | 57 ft | 46 kts | 340° |
| 2026-04-28 13:09 | 21.66797 | 39.16222 | 57 ft | 113 kts | 339° |
| 2026-04-28 13:10 | 21.67710 | 39.15866 | 95 ft | 160 kts | 339° |
| 2026-04-28 13:10 | 21.68774 | 39.15456 | 637 ft | 162 kts | 338° |
| 2026-04-28 13:10 | 21.69827 | 39.15038 | 1266 ft | 164 kts | 339° |
| 2026-04-28 13:10 | 21.70890 | 39.14617 | 1943 ft | 165 kts | 339° |
| 2026-04-28 13:11 | 21.72001 | 39.14179 | 2352 ft | 178 kts | 340° |
| 2026-04-28 13:11 | 21.73221 | 39.13699 | 2691 ft | 195 kts | 340° |
| 2026-04-28 13:11 | 21.74568 | 39.13168 | 3043 ft | 212 kts | 340° |
| 2026-04-28 13:11 | 21.76024 | 39.12594 | 3306 ft | 236 kts | 340° |
| 2026-04-28 13:12 | 21.77632 | 39.11962 | 3767 ft | 253 kts | 339° |
| 2026-04-28 13:12 | 21.79321 | 39.11297 | 4309 ft | 266 kts | 339° |
| 2026-04-28 13:12 | 21.81091 | 39.10600 | 5066 ft | 273 kts | 339° |
| 2026-04-28 13:12 | 21.82893 | 39.09888 | 5792 ft | 279 kts | 339° |
| 2026-04-28 13:13 | 21.84723 | 39.09163 | 6503 ft | 286 kts | 339° |
| 2026-04-28 13:13 | 21.86601 | 39.08422 | 7238 ft | 291 kts | 338° |
| 2026-04-28 13:13 | 21.88510 | 39.07669 | 8016 ft | 294 kts | 338° |
| 2026-04-28 13:13 | 21.90411 | 39.06860 | 8834 ft | 297 kts | 334° |
| 2026-04-28 13:14 | 21.92313 | 39.05963 | 9604 ft | 301 kts | 333° |
| 2026-04-28 13:14 | 21.94260 | 39.05025 | 10369 ft | 306 kts | 332° |
| 2026-04-28 13:14 | 21.96226 | 39.04075 | 10828 ft | 322 kts | 333° |
| 2026-04-28 13:14 | 21.98441 | 39.03287 | 11191 ft | 344 kts | 351° |
| 2026-04-28 13:15 | 22.00840 | 39.03508 | 11779 ft | 356 kts | 16° |
| 2026-04-28 13:15 | 22.03017 | 39.04801 | 12526 ft | 360 kts | 41° |
| 2026-04-28 13:15 | 22.04709 | 39.06771 | 13257 ft | 362 kts | 49° |
| 2026-04-28 13:15 | 22.06348 | 39.08868 | 13905 ft | 368 kts | 50° |
| 2026-04-28 13:16 | 22.08004 | 39.10990 | 14588 ft | 372 kts | 49° |
| 2026-04-28 13:16 | 22.09683 | 39.13119 | 15277 ft | 376 kts | 49° |
| 2026-04-28 13:16 | 22.11405 | 39.15274 | 15902 ft | 381 kts | 49° |
| 2026-04-28 13:16 | 22.13156 | 39.17444 | 16546 ft | 386 kts | 49° |
| 2026-04-28 13:17 | 22.14904 | 39.19605 | 17172 ft | 389 kts | 49° |
| 2026-04-28 13:17 | 22.16692 | 39.21822 | 17770 ft | 394 kts | 49° |
| 2026-04-28 13:17 | 22.18515 | 39.24088 | 18316 ft | 399 kts | 48° |
| 2026-04-28 13:17 | 22.20336 | 39.26352 | 18855 ft | 405 kts | 48° |
| 2026-04-28 13:18 | 22.22200 | 39.28668 | 19406 ft | 410 kts | 48° |
| 2026-04-28 13:18 | 22.24082 | 39.31009 | 19954 ft | 414 kts | 47° |
| 2026-04-28 13:18 | 22.25991 | 39.33383 | 20502 ft | 419 kts | 47° |
| 2026-04-28 13:18 | 22.27927 | 39.35790 | 21011 ft | 424 kts | 47° |
| 2026-04-28 13:19 | 22.29871 | 39.38208 | 21524 ft | 429 kts | 47° |
| 2026-04-28 13:19 | 22.31828 | 39.40645 | 22030 ft | 434 kts | 47° |
| 2026-04-28 13:19 | 22.33822 | 39.43130 | 22557 ft | 438 kts | 46° |
| 2026-04-28 13:19 | 22.35834 | 39.45639 | 23030 ft | 443 kts | 46° |
| 2026-04-28 13:20 | 22.37850 | 39.48152 | 23471 ft | 447 kts | 46° |
| 2026-04-28 13:20 | 22.39875 | 39.50680 | 23925 ft | 450 kts | 46° |
| 2026-04-28 13:20 | 22.41943 | 39.53262 | 24348 ft | 453 kts | 46° |
| 2026-04-28 13:20 | 22.44000 | 39.55833 | 24746 ft | 457 kts | 45° |
| 2026-04-28 13:21 | 22.46096 | 39.58453 | 25152 ft | 459 kts | 45° |
| 2026-04-28 13:21 | 22.48175 | 39.61052 | 25537 ft | 462 kts | 45° |
| 2026-04-28 13:21 | 22.50301 | 39.63709 | 25905 ft | 465 kts | 45° |
| 2026-04-28 13:21 | 22.52419 | 39.66361 | 26221 ft | 469 kts | 45° |
| 2026-04-28 13:22 | 22.54539 | 39.69031 | 26530 ft | 472 kts | 45° |
| 2026-04-28 13:22 | 22.56687 | 39.71737 | 26853 ft | 474 kts | 45° |
| 2026-04-28 13:22 | 22.58845 | 39.74457 | 27156 ft | 476 kts | 45° |
| 2026-04-28 13:22 | 22.60990 | 39.77152 | 27438 ft | 479 kts | 44° |
| 2026-04-28 13:23 | 22.63189 | 39.79914 | 27707 ft | 481 kts | 44° |
| 2026-04-28 13:23 | 22.65380 | 39.82666 | 27972 ft | 484 kts | 44° |
| 2026-04-28 13:23 | 22.67551 | 39.85396 | 28274 ft | 485 kts | 44° |
| 2026-04-28 13:23 | 22.69747 | 39.88158 | 28715 ft | 483 kts | 44° |
| 2026-04-28 13:24 | 22.71952 | 39.90928 | 29077 ft | 484 kts | 44° |
| 2026-04-28 13:24 | 22.74159 | 39.93698 | 29383 ft | 486 kts | 44° |
| 2026-04-28 13:24 | 22.76383 | 39.96496 | 29664 ft | 489 kts | 44° |
| 2026-04-28 13:24 | 22.78600 | 39.99286 | 29962 ft | 491 kts | 44° |
| 2026-04-28 13:25 | 22.80814 | 40.02077 | 30253 ft | 493 kts | 45° |
| 2026-04-28 13:25 | 22.83050 | 40.04897 | 30540 ft | 495 kts | 45° |
| 2026-04-28 13:25 | 22.85325 | 40.07765 | 30821 ft | 497 kts | 45° |
| 2026-04-28 13:25 | 22.87552 | 40.10580 | 31068 ft | 500 kts | 45° |
| 2026-04-28 13:26 | 22.89851 | 40.13485 | 31318 ft | 503 kts | 45° |
| 2026-04-28 13:26 | 22.92128 | 40.16362 | 31599 ft | 504 kts | 45° |
| 2026-04-28 13:26 | 22.94393 | 40.19226 | 31875 ft | 506 kts | 45° |
| 2026-04-28 13:26 | 22.96711 | 40.22159 | 32123 ft | 508 kts | 45° |
| 2026-04-28 13:27 | 22.98992 | 40.25046 | 32335 ft | 511 kts | 45° |
| 2026-04-28 13:27 | 23.01312 | 40.27983 | 32675 ft | 511 kts | 45° |
| 2026-04-28 13:27 | 23.03629 | 40.30922 | 33097 ft | 509 kts | 45° |
| 2026-04-28 13:27 | 23.05916 | 40.33829 | 33535 ft | 507 kts | 45° |
| 2026-04-28 13:28 | 23.08207 | 40.36738 | 33933 ft | 506 kts | 45° |
| 2026-04-28 13:28 | 23.10492 | 40.39638 | 34350 ft | 505 kts | 45° |
| 2026-04-28 13:28 | 23.12786 | 40.42536 | 34746 ft | 503 kts | 45° |
| 2026-04-28 13:28 | 23.15050 | 40.45395 | 35097 ft | 503 kts | 45° |
| 2026-04-28 13:29 | 23.17331 | 40.48289 | 35442 ft | 502 kts | 45° |
| 2026-04-28 13:29 | 23.19611 | 40.51191 | 35697 ft | 503 kts | 45° |
| 2026-04-28 13:29 | 23.21853 | 40.54052 | 35888 ft | 505 kts | 46° |
| 2026-04-28 13:29 | 23.24047 | 40.57052 | 36106 ft | 508 kts | 50° |
| 2026-04-28 13:30 | 23.26086 | 40.60228 | 36339 ft | 511 kts | 54° |
| 2026-04-28 13:30 | 23.27911 | 40.63518 | 36588 ft | 512 kts | 58° |
| 2026-04-28 13:30 | 23.29573 | 40.67023 | 36755 ft | 515 kts | 63° |
| 2026-04-28 13:30 | 23.30975 | 40.70569 | 36891 ft | 518 kts | 68° |
| 2026-04-28 13:31 | 23.33502 | 40.77916 | 37037 ft | 520 kts | 69° |
| 2026-04-28 13:31 | 23.36003 | 40.85283 | 37049 ft | 520 kts | 69° |
| 2026-04-28 13:32 | 23.38540 | 40.92651 | 37051 ft | 520 kts | 69° |
| 2026-04-28 13:32 | 23.41084 | 41.00011 | 37045 ft | 520 kts | 68° |
| 2026-04-28 13:33 | 23.43615 | 41.07344 | 37039 ft | 520 kts | 68° |
| 2026-04-28 13:33 | 23.46153 | 41.14700 | 37039 ft | 520 kts | 68° |
| 2026-04-28 13:34 | 23.48691 | 41.22066 | 37039 ft | 519 kts | 69° |
| 2026-04-28 13:34 | 23.51208 | 41.29394 | 37040 ft | 520 kts | 69° |
| 2026-04-28 13:35 | 23.53748 | 41.36798 | 37032 ft | 520 kts | 68° |
| 2026-04-28 13:35 | 23.56267 | 41.44154 | 37030 ft | 519 kts | 69° |
| 2026-04-28 13:36 | 23.58778 | 41.51503 | 37030 ft | 521 kts | 68° |
| 2026-04-28 13:36 | 23.61299 | 41.58890 | 37032 ft | 521 kts | 69° |
| 2026-04-28 13:37 | 23.63820 | 41.66299 | 37025 ft | 520 kts | 69° |
| 2026-04-28 13:37 | 23.66331 | 41.73714 | 37028 ft | 521 kts | 69° |
| 2026-04-28 13:38 | 23.68773 | 41.81128 | 37027 ft | 521 kts | 70° |
| 2026-04-28 13:38 | 23.71126 | 41.88585 | 37028 ft | 521 kts | 70° |
| 2026-04-28 13:39 | 23.73483 | 41.96030 | 37035 ft | 521 kts | 70° |
| 2026-04-28 13:39 | 23.75918 | 42.03483 | 37038 ft | 520 kts | 69° |
| 2026-04-28 13:40 | 23.78464 | 42.10871 | 37040 ft | 521 kts | 68° |
| 2026-04-28 13:40 | 23.81000 | 42.18244 | 37040 ft | 521 kts | 69° |
| 2026-04-28 13:41 | 23.83528 | 42.25651 | 37037 ft | 521 kts | 69° |
| 2026-04-28 13:41 | 23.86052 | 42.33065 | 37037 ft | 522 kts | 69° |
| 2026-04-28 13:42 | 23.88569 | 42.40476 | 37038 ft | 522 kts | 69° |
| 2026-04-28 13:42 | 23.91067 | 42.47851 | 37040 ft | 522 kts | 69° |
| 2026-04-28 13:43 | 23.93573 | 42.55259 | 37042 ft | 521 kts | 69° |
| 2026-04-28 13:43 | 23.96079 | 42.62677 | 37044 ft | 521 kts | 69° |
| 2026-04-28 13:44 | 23.98578 | 42.70103 | 37047 ft | 520 kts | 70° |
| 2026-04-28 13:44 | 24.01072 | 42.77540 | 37055 ft | 521 kts | 70° |
| 2026-04-28 13:45 | 24.03566 | 42.84959 | 37050 ft | 521 kts | 70° |
| 2026-04-28 13:45 | 24.06039 | 42.92373 | 37060 ft | 521 kts | 70° |
| 2026-04-28 13:46 | 24.08488 | 42.99832 | 37060 ft | 521 kts | 70° |
| 2026-04-28 13:46 | 24.10929 | 43.07260 | 37056 ft | 521 kts | 70° |
| 2026-04-28 13:47 | 24.13398 | 43.14691 | 37050 ft | 521 kts | 70° |
| 2026-04-28 13:47 | 24.15857 | 43.22145 | 37048 ft | 522 kts | 70° |
| 2026-04-28 13:48 | 24.18306 | 43.29623 | 37052 ft | 522 kts | 70° |
| 2026-04-28 13:48 | 24.20742 | 43.37087 | 37046 ft | 522 kts | 70° |
| 2026-04-28 13:49 | 24.23163 | 43.44526 | 37051 ft | 522 kts | 70° |
| 2026-04-28 13:49 | 24.25597 | 43.52009 | 37045 ft | 522 kts | 70° |
| 2026-04-28 13:50 | 24.28024 | 43.59488 | 37035 ft | 522 kts | 70° |
| 2026-04-28 13:50 | 24.30449 | 43.66987 | 37027 ft | 522 kts | 71° |
| 2026-04-28 13:51 | 24.32861 | 43.74473 | 37026 ft | 522 kts | 71° |
| 2026-04-28 13:51 | 24.35282 | 43.81988 | 37017 ft | 523 kts | 71° |
| 2026-04-28 13:52 | 24.37683 | 43.89445 | 37005 ft | 523 kts | 70° |
| 2026-04-28 13:52 | 24.40099 | 43.96967 | 36993 ft | 522 kts | 71° |
| 2026-04-28 13:53 | 24.42512 | 44.04488 | 36990 ft | 522 kts | 70° |
| 2026-04-28 13:53 | 24.44774 | 44.12023 | 36993 ft | 522 kts | 75° |
| 2026-04-28 13:54 | 24.46334 | 44.19799 | 37010 ft | 522 kts | 80° |
| 2026-04-28 13:54 | 24.47657 | 44.27619 | 37013 ft | 522 kts | 81° |
| 2026-04-28 13:55 | 24.48982 | 44.35399 | 37018 ft | 522 kts | 80° |
| 2026-04-28 13:55 | 24.50331 | 44.43232 | 36443 ft | 523 kts | 80° |
| 2026-04-28 13:56 | 24.51006 | 44.47156 | 35479 ft | 528 kts | 80° |
| 2026-04-28 13:56 | 24.51688 | 44.51104 | 34390 ft | 534 kts | 79° |
| 2026-04-28 13:56 | 24.52375 | 44.55103 | 33387 ft | 538 kts | 80° |
| 2026-04-28 13:56 | 24.53069 | 44.59157 | 32524 ft | 539 kts | 79° |
| 2026-04-28 13:57 | 24.53755 | 44.63162 | 31793 ft | 539 kts | 79° |
| 2026-04-28 13:57 | 24.54443 | 44.67175 | 31258 ft | 535 kts | 80° |
| 2026-04-28 13:57 | 24.55129 | 44.71212 | 30728 ft | 530 kts | 80° |
| 2026-04-28 13:57 | 24.55800 | 44.75154 | 30239 ft | 525 kts | 80° |
| 2026-04-28 13:58 | 24.56470 | 44.79093 | 29735 ft | 521 kts | 80° |
| 2026-04-28 13:58 | 24.57124 | 44.82944 | 29262 ft | 516 kts | 80° |
| 2026-04-28 13:58 | 24.57777 | 44.86782 | 28797 ft | 511 kts | 79° |
| 2026-04-28 13:58 | 24.58424 | 44.90606 | 28343 ft | 507 kts | 80° |
| 2026-04-28 13:59 | 24.59061 | 44.94356 | 27907 ft | 503 kts | 80° |
| 2026-04-28 13:59 | 24.59702 | 44.98143 | 27479 ft | 498 kts | 80° |
| 2026-04-28 13:59 | 24.60325 | 45.01832 | 27042 ft | 494 kts | 80° |
| 2026-04-28 13:59 | 24.60949 | 45.05529 | 26608 ft | 490 kts | 81° |
| 2026-04-28 14:00 | 24.61567 | 45.09199 | 26197 ft | 485 kts | 81° |
| 2026-04-28 14:00 | 24.62173 | 45.12814 | 25785 ft | 480 kts | 81° |
| 2026-04-28 14:00 | 24.62770 | 45.16380 | 25360 ft | 476 kts | 81° |
| 2026-04-28 14:00 | 24.63361 | 45.19912 | 24941 ft | 472 kts | 81° |
| 2026-04-28 14:01 | 24.63951 | 45.23422 | 24523 ft | 468 kts | 81° |
| 2026-04-28 14:01 | 24.64534 | 45.26920 | 24113 ft | 464 kts | 81° |
| 2026-04-28 14:01 | 24.65109 | 45.30380 | 23678 ft | 459 kts | 82° |
| 2026-04-28 14:01 | 24.65684 | 45.33840 | 23271 ft | 455 kts | 82° |
| 2026-04-28 14:02 | 24.66244 | 45.37208 | 22871 ft | 450 kts | 82° |
| 2026-04-28 14:02 | 24.66805 | 45.40588 | 22451 ft | 445 kts | 82° |
| 2026-04-28 14:02 | 24.67357 | 45.43917 | 22031 ft | 441 kts | 82° |
| 2026-04-28 14:02 | 24.67895 | 45.47179 | 21627 ft | 437 kts | 82° |
| 2026-04-28 14:03 | 24.68435 | 45.50453 | 21208 ft | 432 kts | 82° |
| 2026-04-28 14:03 | 24.68966 | 45.53671 | 20789 ft | 428 kts | 82° |
| 2026-04-28 14:03 | 24.69493 | 45.56869 | 20379 ft | 425 kts | 82° |
| 2026-04-28 14:03 | 24.70020 | 45.60063 | 19968 ft | 421 kts | 82° |
| 2026-04-28 14:04 | 24.70534 | 45.63205 | 19567 ft | 417 kts | 81° |
| 2026-04-28 14:04 | 24.71043 | 45.66338 | 19154 ft | 413 kts | 83° |
| 2026-04-28 14:04 | 24.71404 | 45.69461 | 18749 ft | 408 kts | 87° |
| 2026-04-28 14:04 | 24.71637 | 45.72540 | 18350 ft | 404 kts | 88° |
| 2026-04-28 14:05 | 24.71844 | 45.75581 | 17961 ft | 400 kts | 88° |
| 2026-04-28 14:05 | 24.72047 | 45.78619 | 17556 ft | 397 kts | 88° |
| 2026-04-28 14:05 | 24.72250 | 45.81620 | 17172 ft | 393 kts | 88° |
| 2026-04-28 14:05 | 24.72457 | 45.84624 | 16748 ft | 391 kts | 88° |
| 2026-04-28 14:06 | 24.72660 | 45.87556 | 16338 ft | 387 kts | 88° |
| 2026-04-28 14:06 | 24.72866 | 45.90527 | 15907 ft | 384 kts | 88° |
| 2026-04-28 14:06 | 24.73065 | 45.93425 | 15481 ft | 382 kts | 88° |
| 2026-04-28 14:06 | 24.73265 | 45.96309 | 15064 ft | 379 kts | 88° |
| 2026-04-28 14:07 | 24.73464 | 45.99193 | 14658 ft | 376 kts | 88° |
| 2026-04-28 14:07 | 24.73662 | 46.02054 | 14253 ft | 373 kts | 88° |
| 2026-04-28 14:07 | 24.73854 | 46.04861 | 13856 ft | 370 kts | 88° |
| 2026-04-28 14:07 | 24.74046 | 46.07673 | 13462 ft | 367 kts | 88° |
| 2026-04-28 14:08 | 24.74235 | 46.10460 | 13062 ft | 364 kts | 88° |
| 2026-04-28 14:08 | 24.74424 | 46.13219 | 12676 ft | 361 kts | 88° |
| 2026-04-28 14:08 | 24.74607 | 46.15920 | 12307 ft | 357 kts | 89° |
| 2026-04-28 14:08 | 24.74732 | 46.17759 | 12055 ft | 355 kts | 88° |
| 2026-04-28 14:09 | 24.74972 | 46.21323 | 11541 ft | 351 kts | 89° |
| 2026-04-28 14:09 | 24.75149 | 46.23979 | 11170 ft | 348 kts | 88° |
| 2026-04-28 14:09 | 24.75327 | 46.26613 | 10803 ft | 344 kts | 88° |
| 2026-04-28 14:09 | 24.75503 | 46.29223 | 10425 ft | 341 kts | 88° |
| 2026-04-28 14:10 | 24.75677 | 46.31820 | 10180 ft | 333 kts | 88° |
| 2026-04-28 14:10 | 24.75842 | 46.34274 | 10116 ft | 318 kts | 89° |
| 2026-04-28 14:10 | 24.76002 | 46.36665 | 9947 ft | 308 kts | 89° |
| 2026-04-28 14:10 | 24.76156 | 46.38986 | 9601 ft | 305 kts | 89° |
| 2026-04-28 14:11 | 24.76306 | 46.41297 | 9277 ft | 301 kts | 88° |
| 2026-04-28 14:11 | 24.76456 | 46.43580 | 8952 ft | 298 kts | 88° |
| 2026-04-28 14:11 | 24.76603 | 46.45813 | 8625 ft | 295 kts | 88° |
| 2026-04-28 14:11 | 24.76750 | 46.48064 | 8298 ft | 292 kts | 88° |
| 2026-04-28 14:12 | 24.76895 | 46.50277 | 7977 ft | 289 kts | 88° |
| 2026-04-28 14:12 | 24.77039 | 46.52472 | 7662 ft | 286 kts | 88° |
| 2026-04-28 14:12 | 24.77180 | 46.54631 | 7352 ft | 284 kts | 88° |
| 2026-04-28 14:12 | 24.77321 | 46.56795 | 7038 ft | 281 kts | 88° |
| 2026-04-28 14:13 | 24.77460 | 46.58921 | 6725 ft | 279 kts | 88° |
| 2026-04-28 14:13 | 24.77596 | 46.61010 | 6421 ft | 276 kts | 87° |
| 2026-04-28 14:13 | 24.77733 | 46.63118 | 6115 ft | 274 kts | 88° |
| 2026-04-28 14:13 | 24.77866 | 46.65186 | 5810 ft | 272 kts | 88° |
| 2026-04-28 14:14 | 24.77997 | 46.67250 | 5504 ft | 269 kts | 88° |
| 2026-04-28 14:14 | 24.78126 | 46.69294 | 5208 ft | 267 kts | 87° |
| 2026-04-28 14:14 | 24.78255 | 46.71318 | 5061 ft | 258 kts | 87° |
| 2026-04-28 14:14 | 24.78379 | 46.73209 | 5054 ft | 246 kts | 87° |
| 2026-04-28 14:15 | 24.78502 | 46.75092 | 5042 ft | 246 kts | 85° |
| 2026-04-28 14:15 | 24.79021 | 46.76864 | 4839 ft | 246 kts | 53° |
| 2026-04-28 14:15 | 24.80370 | 46.77950 | 4652 ft | 243 kts | 14° |
| 2026-04-28 14:15 | 24.82014 | 46.77905 | 4544 ft | 239 kts | 336° |
| 2026-04-28 14:16 | 24.83400 | 46.76917 | 4421 ft | 240 kts | 320° |
| 2026-04-28 14:16 | 24.84724 | 46.75745 | 4080 ft | 245 kts | 322° |
| 2026-04-28 14:16 | 24.86113 | 46.74642 | 3751 ft | 245 kts | 326° |
| 2026-04-28 14:16 | 24.87523 | 46.73644 | 3567 ft | 237 kts | 328° |
| 2026-04-28 14:17 | 24.88945 | 46.72702 | 3210 ft | 239 kts | 329° |
| 2026-04-28 14:17 | 24.90376 | 46.71786 | 3066 ft | 230 kts | 329° |
| 2026-04-28 14:17 | 24.91764 | 46.70905 | 3066 ft | 232 kts | 329° |
| 2026-04-28 14:17 | 24.93167 | 46.70017 | 3064 ft | 234 kts | 329° |
| 2026-04-28 14:18 | 24.94594 | 46.69113 | 3062 ft | 234 kts | 329° |
| 2026-04-28 14:18 | 24.95998 | 46.68225 | 3058 ft | 234 kts | 329° |
| 2026-04-28 14:18 | 24.97424 | 46.67324 | 3055 ft | 234 kts | 329° |
| 2026-04-28 14:18 | 24.98842 | 46.66430 | 3056 ft | 234 kts | 329° |
| 2026-04-28 14:19 | 25.00239 | 46.65550 | 3054 ft | 233 kts | 329° |
| 2026-04-28 14:19 | 25.01651 | 46.64653 | 3054 ft | 233 kts | 329° |
| 2026-04-28 14:19 | 25.03055 | 46.63764 | 3056 ft | 232 kts | 329° |
| 2026-04-28 14:19 | 25.04460 | 46.62874 | 3057 ft | 232 kts | 329° |
| 2026-04-28 14:20 | 25.05874 | 46.61976 | 3056 ft | 232 kts | 329° |
| 2026-04-28 14:20 | 25.07262 | 46.61092 | 3054 ft | 231 kts | 329° |
| 2026-04-28 14:20 | 25.08669 | 46.60192 | 3055 ft | 232 kts | 329° |
| 2026-04-28 14:20 | 25.10064 | 46.59296 | 3056 ft | 232 kts | 329° |
| 2026-04-28 14:21 | 25.11451 | 46.58416 | 3056 ft | 231 kts | 329° |
| 2026-04-28 14:21 | 25.12860 | 46.57531 | 3055 ft | 231 kts | 329° |
| 2026-04-28 14:21 | 25.14254 | 46.56658 | 3059 ft | 231 kts | 329° |
| 2026-04-28 14:21 | 25.15670 | 46.55776 | 3059 ft | 231 kts | 329° |
| 2026-04-28 14:22 | 25.17063 | 46.54910 | 3060 ft | 230 kts | 329° |
| 2026-04-28 14:22 | 25.18464 | 46.54040 | 3061 ft | 230 kts | 329° |
| 2026-04-28 14:22 | 25.19852 | 46.53177 | 3063 ft | 229 kts | 329° |
| 2026-04-28 14:22 | 25.21246 | 46.52312 | 3063 ft | 229 kts | 329° |
| 2026-04-28 14:23 | 25.22643 | 46.51445 | 3063 ft | 228 kts | 329° |
| 2026-04-28 14:23 | 25.24017 | 46.50592 | 3062 ft | 228 kts | 329° |
| 2026-04-28 14:23 | 25.25414 | 46.49725 | 3064 ft | 228 kts | 330° |
| 2026-04-28 14:23 | 25.26789 | 46.48855 | 3063 ft | 227 kts | 327° |
| 2026-04-28 14:24 | 25.27875 | 46.47620 | 3058 ft | 226 kts | 297° |
| 2026-04-28 14:24 | 25.28200 | 46.45942 | 3067 ft | 228 kts | 266° |
| 2026-04-28 14:24 | 25.27703 | 46.44274 | 3076 ft | 230 kts | 244° |
| 2026-04-28 14:24 | 25.26892 | 46.42735 | 3074 ft | 231 kts | 240° |
| 2026-04-28 14:25 | 25.26032 | 46.41231 | 3071 ft | 230 kts | 238° |
| 2026-04-28 14:25 | 25.24882 | 46.39937 | 3051 ft | 241 kts | 208° |
| 2026-04-28 14:25 | 25.23278 | 46.39660 | 3049 ft | 235 kts | 169° |
| 2026-04-28 14:25 | 25.21818 | 46.40423 | 3073 ft | 239 kts | 146° |
| 2026-04-28 14:26 | 25.20424 | 46.41479 | 3077 ft | 243 kts | 148° |
| 2026-04-28 14:26 | 25.18946 | 46.42518 | 3084 ft | 262 kts | 149° |
| 2026-04-28 14:26 | 25.17378 | 46.43599 | 3079 ft | 266 kts | 149° |
| 2026-04-28 14:26 | 25.15799 | 46.44683 | 3077 ft | 266 kts | 149° |
| 2026-04-28 14:27 | 25.14213 | 46.45742 | 3075 ft | 266 kts | 150° |
| 2026-04-28 14:27 | 25.12620 | 46.46765 | 3076 ft | 266 kts | 150° |
| 2026-04-28 14:27 | 25.10998 | 46.47798 | 3076 ft | 267 kts | 151° |
| 2026-04-28 14:27 | 25.09389 | 46.48822 | 3073 ft | 266 kts | 151° |
| 2026-04-28 14:28 | 25.07781 | 46.49845 | 3072 ft | 266 kts | 151° |
| 2026-04-28 14:28 | 25.06190 | 46.50858 | 3072 ft | 266 kts | 150° |
| 2026-04-28 14:28 | 25.04568 | 46.51889 | 3074 ft | 266 kts | 151° |
| 2026-04-28 14:28 | 25.02967 | 46.52908 | 3072 ft | 266 kts | 151° |
| 2026-04-28 14:29 | 25.01354 | 46.53934 | 3072 ft | 266 kts | 151° |
| 2026-04-28 14:29 | 24.99752 | 46.54953 | 3068 ft | 266 kts | 151° |
| 2026-04-28 14:29 | 24.98136 | 46.55981 | 3068 ft | 266 kts | 151° |
| 2026-04-28 14:29 | 24.96530 | 46.56954 | 3069 ft | 266 kts | 151° |
| 2026-04-28 14:30 | 24.94921 | 46.57965 | 3066 ft | 266 kts | 150° |
| 2026-04-28 14:30 | 24.93310 | 46.58995 | 3064 ft | 266 kts | 150° |
| 2026-04-28 14:30 | 24.91702 | 46.60019 | 3062 ft | 265 kts | 150° |
| 2026-04-28 14:30 | 24.90104 | 46.61035 | 3059 ft | 266 kts | 150° |
| 2026-04-28 14:31 | 24.88494 | 46.62054 | 3057 ft | 266 kts | 150° |
| 2026-04-28 14:31 | 24.86882 | 46.63069 | 3056 ft | 266 kts | 150° |
| 2026-04-28 14:31 | 24.85284 | 46.64074 | 3051 ft | 266 kts | 150° |
| 2026-04-28 14:31 | 24.83719 | 46.65165 | 3049 ft | 266 kts | 146° |
| 2026-04-28 14:32 | 24.82156 | 46.66249 | 3041 ft | 258 kts | 150° |
| 2026-04-28 14:32 | 24.80639 | 46.67220 | 3034 ft | 243 kts | 151° |
| 2026-04-28 14:32 | 24.79284 | 46.68256 | 3049 ft | 224 kts | 131° |
| 2026-04-28 14:32 | 24.78722 | 46.69737 | 3156 ft | 207 kts | 96° |
| 2026-04-28 14:33 | 24.78905 | 46.71208 | 3069 ft | 179 kts | 74° |
| 2026-04-28 14:33 | 24.79126 | 46.72459 | 3011 ft | 161 kts | 80° |
| 2026-04-28 14:33 | 24.79325 | 46.73667 | 3020 ft | 158 kts | 65° |
| 2026-04-28 14:33 | 24.80043 | 46.74497 | 3031 ft | 151 kts | 23° |
| 2026-04-28 14:34 | 24.82052 | 46.75340 | 3059 ft | 155 kts | 18° |
| 2026-04-28 14:34 | 24.83065 | 46.75750 | 3057 ft | 155 kts | 15° |
| 2026-04-28 14:34 | 24.83761 | 46.75816 | 3037 ft | 153 kts | 348° |
| 2026-04-28 14:35 | 24.85070 | 46.75186 | 3065 ft | 154 kts | 329° |
| 2026-04-28 14:35 | 24.85997 | 46.74554 | 3063 ft | 155 kts | 327° |
| 2026-04-28 14:35 | 24.86919 | 46.73931 | 3058 ft | 155 kts | 328° |
| 2026-04-28 14:35 | 24.87842 | 46.73334 | 3056 ft | 155 kts | 329° |
| 2026-04-28 14:36 | 24.88794 | 46.72733 | 3058 ft | 155 kts | 329° |
| 2026-04-28 14:36 | 24.89729 | 46.72146 | 2927 ft | 155 kts | 329° |
| 2026-04-28 14:36 | 24.90648 | 46.71568 | 2727 ft | 149 kts | 328° |
| 2026-04-28 14:36 | 24.91549 | 46.70998 | 2538 ft | 148 kts | 328° |
| 2026-04-28 14:37 | 24.92446 | 46.70445 | 2386 ft | 148 kts | 328° |
| 2026-04-28 14:37 | 24.93353 | 46.69863 | 2189 ft | 149 kts | 328° |
| 2026-04-28 14:37 | 24.94242 | 46.69303 | 2057 ft | 141 kts | 328° |
| 2026-04-28 14:37 | 24.94989 | 46.68822 | 2053 ft | 100 kts | 330° |
| 2026-04-28 14:38 | 24.95434 | 46.68541 | 2052 ft | 46 kts | 329° |
| 2026-04-28 14:38 | 24.95696 | 46.68385 | 2053 ft | 40 kts | 343° |
| 2026-04-28 14:38 | 24.95962 | 46.68361 | 2052 ft | 37 kts | 28° |
| 2026-04-28 14:38 | 24.95967 | 46.68546 | 2052 ft | 30 kts | 151° |
| 2026-04-28 14:39 | 24.95788 | 46.68655 | 2052 ft | 29 kts | 146° |
| 2026-04-28 14:39 | 24.95616 | 46.68767 | 2052 ft | 28 kts | 150° |
| 2026-04-28 14:39 | 24.95446 | 46.68872 | 2052 ft | 27 kts | 152° |
| 2026-04-28 14:39 | 24.95280 | 46.68979 | 2052 ft | 26 kts | 149° |
| 2026-04-28 14:40 | 24.95118 | 46.69082 | 2052 ft | 26 kts | 149° |
| 2026-04-28 14:40 | 24.95065 | 46.69115 | 2052 ft | 26 kts | 151° |
| 2026-04-28 14:40 | 24.94781 | 46.69294 | 2052 ft | 33 kts | 150° |
| 2026-04-28 14:40 | 24.94560 | 46.69437 | 2052 ft | 31 kts | 147° |
| 2026-04-28 14:41 | 24.94571 | 46.69629 | 2052 ft | 28 kts | 60° |
| 2026-04-28 14:41 | 24.94703 | 46.69881 | 2052 ft | 40 kts | 58° |
| 2026-04-28 14:41 | 24.94843 | 46.70139 | 2052 ft | 38 kts | 58° |
| 2026-04-28 14:41 | 24.94981 | 46.70385 | 2052 ft | 36 kts | 68° |
| 2026-04-28 14:42 | 24.95097 | 46.70626 | 2051 ft | 34 kts | 59° |
| 2026-04-28 14:42 | 24.95210 | 46.70852 | 2051 ft | 32 kts | 63° |
| 2026-04-28 14:42 | 24.95340 | 46.71012 | 2051 ft | 27 kts | 353° |
| 2026-04-28 14:42 | 24.95508 | 46.70923 | 2051 ft | 26 kts | 330° |
| 2026-04-28 14:43 | 24.95662 | 46.70820 | 2051 ft | 25 kts | 327° |
| 2026-04-28 14:43 | 24.95815 | 46.70728 | 2051 ft | 25 kts | 331° |
| 2026-04-28 14:43 | 24.95962 | 46.70630 | 2051 ft | 24 kts | 328° |
| 2026-04-28 14:43 | 24.96077 | 46.70521 | 2052 ft | 19 kts | 255° |
| 2026-04-28 14:44 | 24.96033 | 46.70428 | 2052 ft | 8 kts | 249° |
| 2026-04-28 14:44 | 24.96044 | 46.70364 | 2052 ft | 9 kts | 297° |
| 2026-04-28 14:44 | 24.96056 | 46.70341 | 2052 ft | 0 kts | 300° |